Time;durP1;ratioP1;P1;durP2;ratioP2;P2;SDS_P1;SDS_P2;PMS_P1;PMS_P2;Temp;Humidity;BMP_temperature;BMP_pressure;BME280_temperature;BME280_humidity;BME280_pressure;Samples;Min_cycle;Max_cycle;Signal;HPM_P1;HPM_P2
2022/08/20 00:00:16;;;;;;;3.38;2.92;;;19.90;99.90;;;;;;5094949;28;20115;-76
2022/08/20 00:02:55;;;;;;;3.67;2.95;;;19.90;99.90;;;;;;5096416;28;20052;-75
2022/08/20 00:05:28;;;;;;;3.08;2.78;;;19.90;99.90;;;;;;5096393;28;20024;-76
2022/08/20 00:07:54;;;;;;;2.85;2.65;;;19.90;99.90;;;;;;5096348;28;20492;-75
2022/08/20 00:10:21;;;;;;;3.55;2.58;;;19.80;99.90;;;;;;5095056;28;20056;-75
2022/08/20 00:12:49;;;;;;;2.83;2.50;;;19.80;99.90;;;;;;5094671;28;20028;-76
2022/08/20 00:15:20;;;;;;;7.28;2.30;;;19.80;99.90;;;;;;5096519;28;20032;-76
2022/08/20 00:17:51;;;;;;;2.85;2.53;;;19.80;99.90;;;;;;5094826;28;20024;-76
2022/08/20 00:20:18;;;;;;;2.85;2.42;;;19.70;99.90;;;;;;5096651;28;20032;-75
2022/08/20 00:22:44;;;;;;;3.25;2.63;;;19.70;99.90;;;;;;5096158;28;20507;-76
2022/08/20 00:25:11;;;;;;;4.28;2.30;;;19.60;99.90;;;;;;5094889;28;20031;-75
2022/08/20 00:27:37;;;;;;;3.70;2.80;;;19.60;99.90;;;;;;5095936;28;20032;-76
2022/08/20 00:30:06;;;;;;;5.30;3.05;;;19.60;99.90;;;;;;5095910;28;20099;-76
2022/08/20 00:32:40;;;;;;;2.55;2.33;;;19.60;99.90;;;;;;5096000;28;20027;-76
2022/08/20 00:35:06;;;;;;;2.45;2.25;;;19.60;99.90;;;;;;5094635;28;20078;-75
2022/08/20 00:37:31;;;;;;;2.53;2.33;;;19.60;99.90;;;;;;5095402;28;20056;-75
2022/08/20 00:39:57;;;;;;;2.88;2.60;;;19.50;99.90;;;;;;5095466;28;20028;-75
2022/08/20 00:42:23;;;;;;;2.78;2.45;;;19.50;99.90;;;;;;5096029;28;20089;-75
2022/08/20 00:44:49;;;;;;;2.38;2.15;;;19.50;99.90;;;;;;5095324;28;20032;-75
2022/08/20 00:47:14;;;;;;;4.25;2.72;;;19.50;99.90;;;;;;5095601;28;20028;-75
2022/08/20 00:49:40;;;;;;;2.45;2.13;;;19.50;99.90;;;;;;5095617;28;20020;-75
2022/08/20 00:52:11;;;;;;;4.50;2.20;;;19.50;99.90;;;;;;5095495;28;20028;-75
2022/08/20 00:54:43;;;;;;;3.33;2.05;;;19.40;99.90;;;;;;5095635;28;20059;-75
2022/08/20 00:57:23;;;;;;;2.38;2.17;;;19.50;99.90;;;;;;5094296;28;20020;-74
2022/08/20 00:59:51;;;;;;;3.50;2.35;;;19.40;99.90;;;;;;5095534;28;20059;-75
2022/08/20 01:02:20;;;;;;;3.25;2.38;;;19.50;99.90;;;;;;5095619;28;20071;-75
2022/08/20 01:04:55;;;;;;;2.28;2.03;;;19.50;99.90;;;;;;5095326;28;20116;-75
2022/08/20 01:07:31;;;;;;;2.17;1.98;;;19.50;99.90;;;;;;5095245;28;20031;-75
2022/08/20 01:09:57;;;;;;;2.97;2.25;;;19.50;99.90;;;;;;5095175;28;20020;-75
2022/08/20 01:12:24;;;;;;;3.85;2.03;;;19.50;99.90;;;;;;5095039;28;20377;-75
2022/08/20 01:14:50;;;;;;;2.33;2.13;;;19.50;99.90;;;;;;5095343;28;20420;-75
2022/08/20 01:17:22;;;;;;;2.30;1.90;;;19.50;99.90;;;;;;5095039;28;20032;-75
2022/08/20 01:19:58;;;;;;;1.90;1.80;;;19.60;99.90;;;;;;5094713;28;20080;-75
2022/08/20 01:25:52;;;;;;;1.98;1.88;;;19.60;99.90;;;;;;5094595;28;20484;-75
2022/08/20 01:28:30;;;;;;;2.25;2.05;;;19.60;99.90;;;;;;5093572;28;20062;-75
2022/08/20 01:30:56;;;;;;;1.90;1.80;;;19.60;99.90;;;;;;5094641;28;20035;-75
2022/08/20 01:33:22;;;;;;;2.03;1.88;;;19.50;99.90;;;;;;5093417;28;20028;-75
2022/08/20 01:35:50;;;;;;;2.58;1.60;;;19.50;99.90;;;;;;5094486;28;20107;-75
2022/08/20 01:38:16;;;;;;;1.90;1.73;;;19.50;99.90;;;;;;5094373;28;20486;-75
2022/08/20 01:40:56;;;;;;;1.80;1.60;;;19.50;99.90;;;;;;5094848;28;20103;-75
2022/08/20 01:43:23;;;;;;;1.40;1.30;;;19.60;99.90;;;;;;5094477;28;20020;-75
2022/08/20 01:45:50;;;;;;;1.98;1.58;;;19.60;99.90;;;;;;5094638;28;20032;-75
2022/08/20 01:48:17;;;;;;;1.30;1.20;;;19.70;99.90;;;;;;5094608;28;20031;-75
2022/08/20 01:50:48;;;;;;;1.63;1.20;;;19.70;99.90;;;;;;5092308;28;20028;-75
2022/08/20 01:53:24;;;;;;;2.60;1.77;;;19.80;99.90;;;;;;5094548;28;20027;-75
2022/08/20 01:55:49;;;;;;;2.05;1.10;;;19.80;99.90;;;;;;5094160;28;20020;-75
2022/08/20 01:58:15;;;;;;;2.45;1.40;;;19.80;99.90;;;;;;5094011;28;20024;-75
2022/08/20 02:00:42;;;;;;;1.02;1.02;;;19.90;99.90;;;;;;5094332;28;20024;-75
2022/08/20 02:03:07;;;;;;;1.20;1.20;;;19.80;99.90;;;;;;5092765;28;20024;-75
2022/08/20 02:05:34;;;;;;;1.00;1.00;;;19.90;99.90;;;;;;5094209;28;20465;-75
2022/08/20 02:08:00;;;;;;;1.10;1.10;;;19.80;99.90;;;;;;5094161;28;20105;-75
2022/08/20 02:10:28;;;;;;;0.77;0.77;;;19.80;99.90;;;;;;5092847;28;20082;-75
2022/08/20 02:12:54;;;;;;;1.05;1.05;;;19.90;99.90;;;;;;5094173;28;20024;-75
2022/08/20 02:15:19;;;;;;;0.77;0.77;;;19.90;99.90;;;;;;5094083;28;20441;-75
2022/08/20 02:17:46;;;;;;;0.98;0.98;;;19.90;99.90;;;;;;5094056;28;20024;-75
2022/08/20 02:20:19;;;;;;;0.70;0.70;;;19.90;99.90;;;;;;5094028;28;20034;-75
2022/08/20 02:22:48;;;;;;;1.00;0.80;;;19.90;99.90;;;;;;5092459;28;20028;-75
2022/08/20 02:25:15;;;;;;;1.15;1.00;;;20.00;99.90;;;;;;5094062;28;20103;-75
2022/08/20 02:27:44;;;;;;;2.83;0.82;;;20.00;99.90;;;;;;5094288;28;20061;-75
2022/08/20 02:30:18;;;;;;;1.58;0.90;;;20.00;99.90;;;;;;5093812;28;20365;-75
2022/08/20 02:32:43;;;;;;;0.70;0.70;;;20.00;99.90;;;;;;5094270;28;20027;-74
2022/08/20 02:35:12;;;;;;;0.90;0.70;;;20.00;99.90;;;;;;5093873;28;20032;-75
2022/08/20 02:37:40;;;;;;;0.80;0.80;;;20.10;99.90;;;;;;5092542;28;20051;-75
2022/08/20 02:40:08;;;;;;;1.17;0.80;;;20.10;99.90;;;;;;5093787;28;20028;-74
2022/08/20 02:42:35;;;;;;;1.80;0.88;;;20.20;99.90;;;;;;5092511;28;20035;-74
2022/08/20 02:45:01;;;;;;;0.50;0.50;;;20.10;99.90;;;;;;5093620;28;20024;-75
2022/08/20 02:47:26;;;;;;;2.05;0.73;;;20.20;99.90;;;;;;5093792;28;20036;-75
2022/08/20 02:49:53;;;;;;;1.15;1.05;;;20.10;99.90;;;;;;5093831;28;20069;-75
2022/08/20 02:52:20;;;;;;;0.70;0.70;;;20.20;99.90;;;;;;5094073;28;20117;-75
2022/08/20 02:54:47;;;;;;;0.60;0.60;;;20.20;99.90;;;;;;5093969;28;20028;-75
2022/08/20 02:57:15;;;;;;;1.60;1.27;;;20.20;99.90;;;;;;5093633;28;20027;-75
2022/08/20 02:59:42;;;;;;;1.65;0.50;;;20.20;99.90;;;;;;5093606;28;20112;-75
2022/08/20 03:02:08;;;;;;;0.60;0.60;;;20.20;99.90;;;;;;5097224;28;20420;-75
2022/08/20 03:04:34;;;;;;;0.73;0.73;;;20.20;99.90;;;;;;5096606;28;20027;-75
2022/08/20 03:06:59;;;;;;;0.50;0.50;;;20.20;99.90;;;;;;5096208;28;20082;-75
2022/08/20 03:09:25;;;;;;;0.98;0.98;;;20.20;99.90;;;;;;5097669;28;20046;-75
2022/08/20 03:11:51;;;;;;;1.42;0.52;;;20.10;99.90;;;;;;5097629;28;20031;-75
2022/08/20 03:14:18;;;;;;;0.75;0.73;;;20.10;99.90;;;;;;5097113;28;20396;-75
2022/08/20 03:16:43;;;;;;;0.60;0.60;;;20.10;99.90;;;;;;5097445;28;20073;-75
2022/08/20 03:19:09;;;;;;;0.60;0.60;;;20.00;99.90;;;;;;5097316;28;20048;-75
2022/08/20 03:21:35;;;;;;;0.52;0.52;;;20.00;99.90;;;;;;5097409;28;20036;-75
2022/08/20 03:24:01;;;;;;;0.93;0.65;;;20.00;99.90;;;;;;5097352;28;20032;-75
2022/08/20 03:26:26;;;;;;;0.57;0.57;;;19.90;99.90;;;;;;5096859;28;20032;-75
2022/08/20 03:28:52;;;;;;;3.40;0.70;;;19.90;99.90;;;;;;5097229;28;20028;-75
2022/08/20 03:31:18;;;;;;;0.63;0.63;;;19.90;99.90;;;;;;5095828;28;20028;-75
2022/08/20 03:33:43;;;;;;;0.70;0.68;;;19.90;99.90;;;;;;5097289;28;20154;-75
2022/08/20 03:36:09;;;;;;;0.43;0.43;;;19.90;99.90;;;;;;5096954;28;20048;-75
2022/08/20 03:38:35;;;;;;;3.40;0.70;;;19.90;99.90;;;;;;5095663;28;20024;-75
2022/08/20 03:41:01;;;;;;;0.75;0.52;;;19.90;99.90;;;;;;5096932;28;20024;-75
2022/08/20 03:43:27;;;;;;;2.13;0.60;;;19.90;99.90;;;;;;5096815;28;20115;-74
2022/08/20 03:45:53;;;;;;;0.65;0.52;;;19.90;99.90;;;;;;5096858;28;20056;-74
2022/08/20 03:48:19;;;;;;;0.65;0.65;;;19.90;99.90;;;;;;5096982;28;20449;-75
2022/08/20 03:50:47;;;;;;;0.35;0.35;;;19.90;99.90;;;;;;5097050;28;20028;-75
2022/08/20 03:53:13;;;;;;;2.47;0.70;;;19.90;99.90;;;;;;5096383;28;20065;-74
2022/08/20 03:55:40;;;;;;;1.20;1.10;;;19.90;99.90;;;;;;5096651;28;20051;-75
2022/08/20 03:58:08;;;;;;;1.73;0.90;;;19.90;99.90;;;;;;5095356;28;20110;-75
2022/08/20 04:00:43;;;;;;;1.05;0.95;;;19.90;99.90;;;;;;5095616;28;20024;-74
2022/08/20 04:03:09;;;;;;;2.83;1.10;;;19.90;99.90;;;;;;5096533;28;20024;-75
2022/08/20 04:05:39;;;;;;;0.52;0.52;;;19.90;99.90;;;;;;5096472;28;20063;-74
2022/08/20 04:08:12;;;;;;;1.63;0.95;;;19.90;99.90;;;;;;5096630;28;20497;-75
2022/08/20 04:10:38;;;;;;;0.70;0.70;;;19.90;99.90;;;;;;5096592;28;20031;-75
2022/08/20 04:13:06;;;;;;;0.70;0.70;;;19.90;99.90;;;;;;5095965;28;20032;-75
2022/08/20 04:15:33;;;;;;;0.68;0.65;;;19.90;99.90;;;;;;5096275;28;20032;-75
2022/08/20 04:17:59;;;;;;;1.13;1.00;;;19.90;99.90;;;;;;5094744;28;20055;-74
2022/08/20 04:20:26;;;;;;;0.80;0.80;;;19.80;99.90;;;;;;5096156;28;20028;-74
2022/08/20 04:22:53;;;;;;;0.75;0.75;;;19.80;99.90;;;;;;5094835;28;20460;-75
2022/08/20 04:25:20;;;;;;;0.70;0.70;;;19.80;99.90;;;;;;5095758;28;20039;-75
2022/08/20 04:27:48;;;;;;;0.82;0.80;;;19.70;99.90;;;;;;5094439;28;20032;-75
2022/08/20 04:30:16;;;;;;;1.05;0.90;;;19.70;99.90;;;;;;5094737;28;20031;-75
2022/08/20 04:32:42;;;;;;;0.77;0.77;;;19.70;99.90;;;;;;5095947;28;20027;-75
2022/08/20 04:35:13;;;;;;;4.20;1.08;;;19.70;99.90;;;;;;5095688;28;20270;-75
2022/08/20 04:37:40;;;;;;;0.85;0.85;;;19.60;99.90;;;;;;5096039;28;20111;-75
2022/08/20 04:42:53;;;;;;;2.03;0.82;;;19.60;99.90;;;;;;5095748;28;20043;-74
2022/08/20 04:45:20;;;;;;;1.45;0.95;;;19.60;99.90;;;;;;5095946;28;20024;-74
2022/08/20 04:47:47;;;;;;;0.82;0.60;;;19.60;99.90;;;;;;5095677;28;20064;-74
2022/08/20 04:50:13;;;;;;;1.50;0.70;;;19.60;99.90;;;;;;5094277;28;20111;-75
2022/08/20 04:52:39;;;;;;;0.63;0.60;;;19.50;99.90;;;;;;5095306;28;20099;-75
2022/08/20 04:55:06;;;;;;;0.63;0.63;;;19.50;99.90;;;;;;5094243;28;20127;-74
2022/08/20 04:57:35;;;;;;;0.70;0.70;;;19.50;99.90;;;;;;5095486;28;20038;-75
2022/08/20 05:00:02;;;;;;;1.50;0.77;;;19.60;99.90;;;;;;5095582;28;20028;-75
2022/08/20 05:02:28;;;;;;;0.73;0.73;;;19.60;99.90;;;;;;5094043;28;20062;-74
2022/08/20 05:04:54;;;;;;;1.38;0.60;;;19.60;99.90;;;;;;5095221;28;20373;-74
2022/08/20 05:07:19;;;;;;;0.60;0.60;;;19.60;99.90;;;;;;5093896;28;20123;-74
2022/08/20 05:09:45;;;;;;;1.60;0.73;;;19.60;99.90;;;;;;5095548;28;20026;-74
2022/08/20 05:12:14;;;;;;;0.68;0.60;;;19.70;99.90;;;;;;5095405;28;20389;-74
2022/08/20 05:14:41;;;;;;;0.38;0.38;;;19.70;99.90;;;;;;5093826;28;20027;-74
2022/08/20 05:17:07;;;;;;;1.33;0.70;;;19.70;99.90;;;;;;5095098;28;20043;-75
2022/08/20 05:19:36;;;;;;;0.70;0.70;;;19.80;99.90;;;;;;5095152;28;20401;-74
2022/08/20 05:22:03;;;;;;;1.38;0.60;;;19.80;99.90;;;;;;5094803;28;20393;-74
2022/08/20 05:24:29;;;;;;;0.50;0.50;;;19.90;99.90;;;;;;5093918;28;20110;-74
2022/08/20 05:26:55;;;;;;;2.05;0.70;;;20.00;99.90;;;;;;5095039;28;20107;-74
2022/08/20 05:29:22;;;;;;;0.40;0.40;;;20.10;99.90;;;;;;5094473;28;20024;-74
2022/08/20 05:31:48;;;;;;;1.38;0.60;;;20.10;99.90;;;;;;5094784;28;20031;-74
2022/08/20 05:34:13;;;;;;;0.60;0.60;;;20.20;99.90;;;;;;5093584;28;20055;-74
2022/08/20 05:36:44;;;;;;;0.45;0.32;;;20.20;99.90;;;;;;5093607;28;20370;-74
2022/08/20 05:39:12;;;;;;;0.40;0.40;;;20.10;99.90;;;;;;5095076;28;20457;-75
2022/08/20 05:41:38;;;;;;;0.45;0.40;;;20.30;99.90;;;;;;5096110;28;20028;-79
2022/08/20 05:44:08;;;;;;;1.27;0.35;;;20.50;99.90;;;;;;5095701;28;20032;-80
2022/08/20 05:46:34;;;;;;;0.25;0.25;;;20.60;99.90;;;;;;5096951;28;20054;-82
2022/08/20 05:49:03;;;;;;;1.33;0.30;;;20.70;99.90;;;;;;5094950;28;20024;-75
2022/08/20 05:51:29;;;;;;;1.15;0.30;;;20.80;99.90;;;;;;5096445;28;20031;-68
2022/08/20 05:53:56;;;;;;;1.80;0.55;;;20.80;99.90;;;;;;5095204;28;20032;-70
2022/08/20 05:56:22;;;;;;;4.28;0.30;;;20.80;99.90;;;;;;5094419;28;20027;-74
2022/08/20 05:58:48;;;;;;;0.43;0.30;;;20.70;99.90;;;;;;5094263;28;20099;-74
2022/08/20 06:01:13;;;;;;;0.30;0.30;;;20.70;99.90;;;;;;5094461;28;20101;-71
2022/08/20 06:06:23;;;;;;;0.60;0.60;;;20.70;99.90;;;;;;5094406;28;20047;-76
2022/08/20 06:08:49;;;;;;;0.50;0.40;;;20.80;99.90;;;;;;5092941;28;20028;-70
2022/08/20 06:11:14;;;;;;;0.40;0.40;;;20.70;99.90;;;;;;5094141;28;20027;-68
2022/08/20 06:13:40;;;;;;;3.05;0.40;;;20.50;99.90;;;;;;5094462;28;20040;-69
2022/08/20 06:16:05;;;;;;;3.40;0.50;;;20.50;99.90;;;;;;5094235;28;20073;-58
2022/08/20 06:18:31;;;;;;;1.90;0.30;;;20.60;99.90;;;;;;5093798;28;20486;-57
2022/08/20 06:20:57;;;;;;;2.28;0.38;;;20.80;99.90;;;;;;5075780;28;20057;-58
2022/08/20 06:23:24;;;;;;;1.60;0.30;;;21.10;99.90;;;;;;5092218;28;20115;-58
2022/08/20 06:25:50;;;;;;;1.55;0.40;;;21.40;99.90;;;;;;5093188;28;20032;-58
2022/08/20 06:28:16;;;;;;;0.45;0.40;;;21.70;99.90;;;;;;5093566;28;20028;-58
2022/08/20 06:30:42;;;;;;;2.03;0.45;;;21.90;99.90;;;;;;5093882;28;20453;-58
2022/08/20 06:33:08;;;;;;;0.95;0.40;;;21.80;99.90;;;;;;5094050;28;20042;-58
2022/08/20 06:35:36;;;;;;;0.52;0.30;;;21.70;99.90;;;;;;5094096;28;20441;-59
2022/08/20 06:38:02;;;;;;;0.30;0.30;;;21.70;99.90;;;;;;5093813;28;20027;-60
2022/08/20 06:40:28;;;;;;;2.70;0.40;;;21.80;99.90;;;;;;5091901;28;20028;-58
2022/08/20 06:42:55;;;;;;;0.95;0.50;;;21.90;99.90;;;;;;5091617;28;20053;-58
2022/08/20 06:45:27;;;;;;;3.08;0.30;;;21.90;99.90;;;;;;5093658;28;20111;-58
2022/08/20 06:47:55;;;;;;;0.20;0.20;;;22.00;99.90;;;;;;5094012;28;20031;-58
2022/08/20 06:50:30;;;;;;;2.28;0.30;;;22.10;99.90;;;;;;5093619;28;20016;-59
2022/08/20 06:52:56;;;;;;;0.40;0.40;;;22.10;99.90;;;;;;5092977;28;20028;-59
2022/08/20 06:55:23;;;;;;;0.40;0.40;;;22.20;99.90;;;;;;5093801;28;20532;-58
2022/08/20 06:58:05;;;;;;;0.45;0.28;;;22.40;99.90;;;;;;5090657;28;20396;-59
2022/08/20 07:00:32;;;;;;;1.17;0.40;;;22.30;99.90;;;;;;5086290;28;20103;-58
2022/08/20 07:03:01;;;;;;;0.68;0.45;;;22.20;99.90;;;;;;5092163;28;20161;-59
2022/08/20 07:05:33;;;;;;;3.13;0.40;;;22.30;99.90;;;;;;5072195;28;20062;-58
2022/08/20 07:07:59;;;;;;;0.88;0.20;;;22.30;99.90;;;;;;5073541;28;20103;-59
2022/08/20 07:10:27;;;;;;;0.75;0.40;;;22.30;99.90;;;;;;5073607;28;20374;-58
2022/08/20 07:12:53;;;;;;;0.80;0.20;;;22.30;99.90;;;;;;5071895;28;20036;-58
2022/08/20 07:15:21;;;;;;;0.82;0.30;;;22.20;99.90;;;;;;5073155;28;20051;-59
2022/08/20 07:17:53;;;;;;;1.38;0.50;;;22.20;99.90;;;;;;5073009;28;20048;-59
2022/08/20 07:20:19;;;;;;;0.68;0.38;;;22.30;99.90;;;;;;5073205;28;20029;-58
2022/08/20 07:22:46;;;;;;;0.60;0.40;;;22.30;99.90;;;;;;5071966;28;20056;-58
2022/08/20 07:25:14;;;;;;;0.80;0.20;;;22.40;99.90;;;;;;5073256;28;20037;-59
2022/08/20 07:27:41;;;;;;;0.88;0.20;;;22.30;99.90;;;;;;5073067;28;20408;-59
2022/08/20 07:32:54;;;;;;;0.73;0.35;;;22.40;99.90;;;;;;5073224;28;20149;-59
2022/08/20 07:35:21;;;;;;;0.57;0.25;;;22.30;99.90;;;;;;5073095;28;20059;-59
2022/08/20 07:37:48;;;;;;;0.88;0.20;;;22.50;99.90;;;;;;5072913;28;20056;-58
2022/08/20 07:40:21;;;;;;;1.17;0.10;;;22.50;99.90;;;;;;5072649;28;20454;-60
2022/08/20 07:42:49;;;;;;;1.77;0.20;;;22.70;99.90;;;;;;5073175;28;20040;-59
2022/08/20 07:45:17;;;;;;;0.90;0.20;;;22.90;99.90;;;;;;5073101;28;20451;-58
2022/08/20 07:47:45;;;;;;;0.28;0.20;;;23.10;99.90;;;;;;5072672;28;20036;-60
2022/08/20 07:50:14;;;;;;;0.17;0.10;;;23.40;99.90;;;;;;5076122;28;20390;-58
2022/08/20 07:52:47;;;;;;;0.30;0.20;;;23.70;99.90;;;;;;5076387;28;20031;-58
2022/08/20 07:55:15;;;;;;;2.05;0.30;;;24.00;99.90;;;;;;5075435;28;20059;-58
2022/08/20 07:57:42;;;;;;;0.10;0.10;;;24.40;99.90;;;;;;5075097;28;20021;-70
2022/08/20 08:00:10;;;;;;;1.25;0.90;;;24.60;99.90;;;;;;5076260;28;20017;-71
2022/08/20 08:02:36;;;;;;;0.40;0.20;;;24.50;99.90;;;;;;5076293;28;20107;-71
2022/08/20 08:05:03;;;;;;;0.85;0.10;;;24.10;99.90;;;;;;5076153;28;20035;-71
2022/08/20 08:07:30;;;;;;;0.43;0.10;;;23.90;99.90;;;;;;5076142;28;20028;-71
2022/08/20 08:09:56;;;;;;;0.20;0.10;;;24.10;99.90;;;;;;5076156;28;20025;-71
2022/08/20 08:12:22;;;;;;;0.20;0.20;;;24.40;99.90;;;;;;5076063;28;20021;-71
2022/08/20 08:14:49;;;;;;;0.30;0.00;;;24.60;99.90;;;;;;5076165;28;20020;-72
2022/08/20 08:17:16;;;;;;;0.35;0.30;;;24.50;99.90;;;;;;5075995;28;20074;-72
2022/08/20 08:19:47;;;;;;;0.17;0.00;;;24.60;99.90;;;;;;5076564;28;20485;-72
2022/08/20 08:22:15;;;;;;;0.38;0.10;;;24.60;99.90;;;;;;5075929;28;20051;-72
2022/08/20 08:24:42;;;;;;;0.40;0.05;;;24.80;99.90;;;;;;5075668;28;20032;-72
2022/08/20 08:27:08;;;;;;;0.00;0.00;;;25.00;99.90;;;;;;5075688;28;20021;-72
2022/08/20 08:29:37;;;;;;;0.73;0.15;;;24.80;99.90;;;;;;5075881;28;20119;-72
2022/08/20 08:32:04;;;;;;;1.88;0.52;;;24.90;99.90;;;;;;5075712;28;20020;-72
2022/08/20 08:34:32;;;;;;;2.55;0.10;;;25.10;99.90;;;;;;5075579;28;20060;-69
2022/08/20 08:36:59;;;;;;;0.08;0.00;;;25.00;99.90;;;;;;5075551;28;20039;-69
2022/08/20 08:39:25;;;;;;;0.28;0.00;;;25.00;99.80;;;;;;5075382;28;20181;-70
2022/08/20 08:41:53;;;;;;;0.10;0.05;;;24.90;99.20;;;;;;5074337;28;20025;-72
2022/08/20 08:44:27;;;;;;;0.30;0.08;;;24.60;99.80;;;;;;5075050;28;20386;-71
2022/08/20 08:47:17;;;;;;;0.08;0.03;;;24.50;99.90;;;;;;5075548;28;20435;-72
2022/08/20 08:49:45;;;;;;;0.05;0.05;;;24.30;99.90;;;;;;5075216;28;20029;-72
2022/08/20 08:52:18;;;;;;;0.50;0.10;;;24.10;99.90;;;;;;5073862;28;20167;-72
2022/08/20 08:54:51;;;;;;;0.32;0.10;;;23.90;99.90;;;;;;5075741;28;20028;-71
2022/08/20 08:57:17;;;;;;;0.40;0.10;;;24.10;99.90;;;;;;5074925;28;20051;-72
2022/08/20 08:59:58;;;;;;;1.00;0.00;;;24.40;99.90;;;;;;5074972;28;20107;-72
2022/08/20 09:02:26;;;;;;;0.30;0.00;;;24.60;99.80;;;;;;5075065;28;20017;-70
2022/08/20 09:04:55;;;;;;;0.52;0.10;;;24.50;99.80;;;;;;5075110;28;20033;-71
2022/08/20 09:07:23;;;;;;;1.85;0.10;;;24.30;99.70;;;;;;5075236;28;20107;-71
2022/08/20 09:09:50;;;;;;;0.90;0.10;;;24.10;99.90;;;;;;5074820;28;20091;-71
2022/08/20 09:12:21;;;;;;;0.10;0.10;;;23.90;99.90;;;;;;5074872;28;20109;-71
2022/08/20 09:14:49;;;;;;;1.55;0.10;;;23.90;99.90;;;;;;5074797;28;20033;-72
2022/08/20 09:17:16;;;;;;;2.05;0.20;;;24.00;99.90;;;;;;5073356;28;20108;-73
2022/08/20 09:19:41;;;;;;;0.10;0.10;;;24.20;99.90;;;;;;5075185;28;20420;-71
2022/08/20 09:22:09;;;;;;;1.83;0.20;;;24.40;99.80;;;;;;5073373;28;20119;-71
2022/08/20 09:24:35;;;;;;;1.40;0.15;;;24.60;99.60;;;;;;5074385;28;20039;-71
2022/08/20 09:27:00;;;;;;;0.20;0.10;;;25.00;98.70;;;;;;5074820;28;20028;-69
2022/08/20 09:29:26;;;;;;;0.13;0.13;;;25.00;98.30;;;;;;5074906;28;20442;-69
2022/08/20 09:32:08;;;;;;;3.05;0.20;;;24.90;98.50;;;;;;5074462;28;20082;-69
2022/08/20 09:34:36;;;;;;;0.28;0.03;;;25.30;98.10;;;;;;5073311;28;20078;-69
2022/08/20 09:37:02;;;;;;;1.63;0.10;;;25.60;97.50;;;;;;5074173;28;20069;-69
2022/08/20 09:39:27;;;;;;;1.35;0.20;;;25.60;97.60;;;;;;5074355;28;20036;-58
2022/08/20 09:41:53;;;;;;;0.65;0.22;;;25.70;97.50;;;;;;5074486;28;20478;-59
2022/08/20 09:44:18;;;;;;;0.20;0.10;;;25.90;97.20;;;;;;5073869;28;20105;-60
2022/08/20 09:46:44;;;;;;;0.25;0.25;;;26.20;96.60;;;;;;5074138;28;20484;-59
2022/08/20 09:49:09;;;;;;;0.30;0.30;;;26.70;95.80;;;;;;5073793;28;20035;-59
2022/08/20 09:51:35;;;;;;;1.80;0.30;;;26.90;95.30;;;;;;5072805;28;20028;-59
2022/08/20 09:54:01;;;;;;;4.38;1.10;;;27.20;95.00;;;;;;5074101;28;20059;-59
2022/08/20 09:56:29;;;;;;;2.95;0.40;;;27.60;94.00;;;;;;5074063;28;20473;-59
2022/08/20 09:58:55;;;;;;;1.10;0.43;;;27.40;93.30;;;;;;5072819;28;20024;-60
2022/08/20 10:01:21;;;;;;;0.85;0.43;;;27.20;93.70;;;;;;5074182;28;20103;-59
2022/08/20 10:03:48;;;;;;;0.57;0.22;;;26.70;93.70;;;;;;5074047;28;20067;-59
2022/08/20 10:06:16;;;;;;;1.20;0.77;;;26.30;94.30;;;;;;5073958;28;20056;-59
2022/08/20 10:08:43;;;;;;;0.30;0.30;;;26.20;94.60;;;;;;5073794;28;20448;-59
2022/08/20 10:11:08;;;;;;;1.55;0.30;;;26.40;94.80;;;;;;5072306;28;20032;-59
2022/08/20 10:13:34;;;;;;;1.85;0.25;;;27.00;94.10;;;;;;5073540;28;20303;-59
2022/08/20 10:15:59;;;;;;;2.13;0.50;;;27.70;93.10;;;;;;5072642;28;20031;-59
2022/08/20 10:18:25;;;;;;;2.20;0.25;;;28.10;91.80;;;;;;5073476;28;20056;-59
2022/08/20 10:20:51;;;;;;;0.10;0.10;;;28.60;90.90;;;;;;5073782;28;20032;-60
2022/08/20 10:23:16;;;;;;;4.15;0.35;;;29.20;89.10;;;;;;5073694;28;20462;-59
2022/08/20 10:25:42;;;;;;;1.75;0.22;;;29.20;87.50;;;;;;5073418;28;20032;-59
2022/08/20 10:28:08;;;;;;;2.30;0.30;;;29.10;86.40;;;;;;5073913;28;20036;-60
2022/08/20 10:30:34;;;;;;;1.33;0.47;;;28.90;86.60;;;;;;5074149;28;20039;-59
2022/08/20 10:33:00;;;;;;;1.40;0.25;;;28.50;87.30;;;;;;5073620;28;20048;-57
2022/08/20 10:35:25;;;;;;;3.55;0.20;;;28.30;87.50;;;;;;5073529;28;20071;-56
2022/08/20 10:37:51;;;;;;;0.30;0.28;;;28.00;87.40;;;;;;5073809;28;20029;-57
2022/08/20 10:40:17;;;;;;;0.38;0.20;;;28.00;87.40;;;;;;5073569;28;20032;-57
2022/08/20 10:42:43;;;;;;;1.65;0.30;;;28.00;87.60;;;;;;5073503;28;20056;-56
2022/08/20 10:45:15;;;;;;;3.10;0.40;;;28.00;87.10;;;;;;5073478;28;20064;-57
2022/08/20 10:47:41;;;;;;;0.75;0.40;;;27.90;86.80;;;;;;5073448;28;20031;-57
2022/08/20 10:50:11;;;;;;;2.08;0.20;;;27.60;87.20;;;;;;5073465;28;20102;-57
2022/08/20 10:52:36;;;;;;;0.30;0.30;;;27.50;87.40;;;;;;5073129;28;20028;-56
2022/08/20 10:55:03;;;;;;;1.85;0.45;;;27.50;87.40;;;;;;5073160;28;20066;-57
2022/08/20 10:57:32;;;;;;;0.50;0.50;;;27.60;87.10;;;;;;5074017;28;20020;-57
2022/08/20 10:59:58;;;;;;;;;;;27.40;87.40;;;;;;5073773;28;20028;-57
2022/08/20 11:02:25;;;;;;;1.65;0.60;;;27.50;87.90;;;;;;5073344;28;20369;-57
2022/08/20 11:04:54;;;;;;;0.60;0.60;;;27.60;87.40;;;;;;5072930;28;20462;-57
2022/08/20 11:07:33;;;;;;;0.40;0.40;;;27.30;88.20;;;;;;5072059;28;20029;-57
2022/08/20 11:09:58;;;;;;;2.65;1.25;;;26.80;89.20;;;;;;5073248;28;20020;-56
2022/08/20 11:12:24;;;;;;;0.60;0.60;;;26.60;90.10;;;;;;5072899;28;20024;-56
2022/08/20 11:14:52;;;;;;;0.50;0.50;;;26.40;90.50;;;;;;5073215;28;20033;-56
2022/08/20 11:17:20;;;;;;;0.75;0.50;;;25.90;91.20;;;;;;5073106;28;20105;-57
2022/08/20 11:19:45;;;;;;;0.55;0.55;;;25.60;92.10;;;;;;5071468;28;20053;-58
2022/08/20 11:22:11;;;;;;;5.10;0.82;;;25.40;92.30;;;;;;5072280;28;20033;-59
2022/08/20 11:24:37;;;;;;;2.15;0.80;;;25.20;93.00;;;;;;5076566;28;20032;-59
2022/08/20 11:27:06;;;;;;;0.95;0.80;;;25.30;93.20;;;;;;5076831;28;20073;-58
2022/08/20 11:29:32;;;;;;;0.88;0.88;;;25.00;93.30;;;;;;5076852;28;20042;-58
2022/08/20 11:31:58;;;;;;;0.95;0.82;;;24.80;94.00;;;;;;5075907;28;20469;-58
2022/08/20 11:34:23;;;;;;;2.50;1.00;;;24.60;94.50;;;;;;5075702;28;20029;-58
2022/08/20 11:36:49;;;;;;;2.55;1.13;;;24.60;94.90;;;;;;5075399;28;20454;-58
2022/08/20 11:39:15;;;;;;;1.65;1.02;;;24.60;95.30;;;;;;5076400;28;20025;-58
2022/08/20 11:41:40;;;;;;;1.85;1.08;;;24.60;95.30;;;;;;5076360;28;20522;-58
2022/08/20 11:44:06;;;;;;;0.95;0.95;;;24.60;95.40;;;;;;5075243;28;20350;-58
2022/08/20 11:46:32;;;;;;;1.30;1.05;;;24.60;95.30;;;;;;5076439;28;20025;-58
2022/08/20 11:48:58;;;;;;;6.47;1.23;;;24.60;95.20;;;;;;5076737;28;20052;-60
2022/08/20 11:51:24;;;;;;;1.00;1.00;;;24.30;95.50;;;;;;5075118;28;20381;-58
2022/08/20 11:53:50;;;;;;;1.15;1.15;;;24.30;95.90;;;;;;5075091;28;20028;-58
2022/08/20 11:56:16;;;;;;;1.05;1.02;;;24.50;96.30;;;;;;5076293;28;20543;-58
2022/08/20 11:58:42;;;;;;;1.40;1.30;;;24.60;95.80;;;;;;5074680;28;20028;-58
2022/08/20 12:01:08;;;;;;;2.20;1.30;;;24.60;95.90;;;;;;5074749;28;20082;-58
2022/08/20 12:03:34;;;;;;;1.02;1.02;;;24.90;95.60;;;;;;5076267;28;20035;-58
2022/08/20 12:06:00;;;;;;;1.42;1.23;;;24.80;95.40;;;;;;5076370;28;20052;-58
2022/08/20 12:08:28;;;;;;;1.30;1.20;;;24.60;95.70;;;;;;5075887;28;20063;-58
2022/08/20 12:10:55;;;;;;;1.50;1.40;;;24.40;95.80;;;;;;5074802;28;20024;-58
2022/08/20 12:13:20;;;;;;;1.40;1.30;;;24.10;96.20;;;;;;5076064;28;20112;-58
2022/08/20 12:15:48;;;;;;;1.27;1.27;;;23.80;96.90;;;;;;5074761;28;20469;-58
2022/08/20 12:18:14;;;;;;;1.80;1.10;;;23.40;97.90;;;;;;5074565;28;20088;-58
2022/08/20 12:20:40;;;;;;;3.00;1.52;;;23.20;98.40;;;;;;5075909;28;20090;-58
2022/08/20 12:23:06;;;;;;;4.55;2.20;;;22.90;99.30;;;;;;5074578;28;20025;-58
2022/08/20 12:25:32;;;;;;;1.30;1.30;;;22.80;99.90;;;;;;5075737;28;20094;-58
2022/08/20 12:27:58;;;;;;;3.33;1.30;;;22.50;99.90;;;;;;5075800;28;20115;-58
2022/08/20 12:30:24;;;;;;;1.60;1.50;;;22.50;99.90;;;;;;5074481;28;20028;-58
2022/08/20 12:32:50;;;;;;;1.83;1.58;;;22.70;99.90;;;;;;5075185;28;20029;-58
2022/08/20 12:35:18;;;;;;;3.33;1.80;;;22.60;99.90;;;;;;5076182;28;20055;-58
2022/08/20 12:37:44;;;;;;;3.80;1.60;;;22.50;99.90;;;;;;5075627;28;20029;-58
2022/08/20 12:40:20;;;;;;;1.48;1.48;;;22.40;99.90;;;;;;5075462;28;20478;-58
2022/08/20 12:42:45;;;;;;;1.58;1.45;;;22.40;99.90;;;;;;5073929;28;20025;-58
2022/08/20 12:45:11;;;;;;;2.03;1.70;;;22.40;99.90;;;;;;5074082;28;20040;-58
2022/08/20 12:47:40;;;;;;;1.70;1.60;;;22.40;99.90;;;;;;5075383;28;20033;-58
2022/08/20 12:50:17;;;;;;;1.73;1.53;;;22.50;99.90;;;;;;5074135;28;20024;-58
2022/08/20 12:52:43;;;;;;;1.30;1.30;;;22.40;99.90;;;;;;5075399;28;20295;-58
2022/08/20 12:55:11;;;;;;;1.60;1.50;;;22.40;99.90;;;;;;5073945;28;20039;-58
2022/08/20 12:57:42;;;;;;;2.05;1.95;;;22.40;99.90;;;;;;5075197;28;20086;-58
2022/08/20 13:00:19;;;;;;;1.80;1.70;;;22.40;99.90;;;;;;5074978;28;20021;-58